createdAt,value
2019-03-09T00:01:24.252Z,63.97
2019-03-09T00:03:53.473Z,63.68
2019-03-09T00:06:22.707Z,63.76
2019-03-09T00:08:51.834Z,64.18
2019-03-09T00:11:20.934Z,64.97
2019-03-09T00:13:50.168Z,64.06
2019-03-09T00:16:19.341Z,64.68
2019-03-09T00:18:48.924Z,64.38
2019-03-09T00:21:18.308Z,64.63
2019-03-09T00:23:59.139Z,65.27
2019-03-09T00:26:38.450Z,64.80
2019-03-09T00:29:15.741Z,65.02
2019-03-09T00:31:54.558Z,64.68
2019-03-09T00:34:23.682Z,65.56
2019-03-09T00:36:52.834Z,65.13
2019-03-09T00:39:22.325Z,66.29
2019-03-09T00:41:53.301Z,66.35
2019-03-09T00:44:22.367Z,66.81
2019-03-09T00:46:51.743Z,67.01
2019-03-09T00:49:21.289Z,66.83
2019-03-09T00:51:50.397Z,66.73
2019-03-09T00:54:19.602Z,67.16
2019-03-09T00:56:48.682Z,67.29
2019-03-09T00:59:17.920Z,68.18
2019-03-09T01:01:47.186Z,68.30
2019-03-09T01:04:16.360Z,68.26
2019-03-09T01:06:45.667Z,68.97
2019-03-09T01:09:14.798Z,68.69
2019-03-09T01:11:43.991Z,69.60
2019-03-09T01:14:13.131Z,69.86
2019-03-09T01:16:42.379Z,69.64
2019-03-09T01:19:11.607Z,70.57
2019-03-09T01:21:40.955Z,70.45
2019-03-09T01:24:10.079Z,70.50
2019-03-09T01:26:39.170Z,70.34
2019-03-09T01:29:08.279Z,69.78
2019-03-09T01:31:37.685Z,70.11
2019-03-09T01:34:06.855Z,70.60
2019-03-09T01:36:36.068Z,70.50
2019-03-09T01:39:06.441Z,70.38
2019-03-09T01:41:35.766Z,70.22
2019-03-09T01:44:04.973Z,70.77
2019-03-09T01:46:34.074Z,71.06
2019-03-09T01:49:03.300Z,71.00
2019-03-09T01:51:32.369Z,70.85
2019-03-09T01:54:01.627Z,70.77
2019-03-09T01:56:30.791Z,70.65
2019-03-09T01:59:00.283Z,71.08
2019-03-09T02:01:29.375Z,71.32
2019-03-09T02:03:58.459Z,71.73
2019-03-09T02:06:27.714Z,71.94
2019-03-09T02:08:56.834Z,72.39
2019-03-09T02:11:26.503Z,72.64
2019-03-09T02:13:55.591Z,73.07
2019-03-09T02:16:24.671Z,73.22
2019-03-09T02:18:53.843Z,73.53
2019-03-09T02:21:25.021Z,74.02
2019-03-09T02:23:54.221Z,74.13
2019-03-09T02:26:23.466Z,73.84
2019-03-09T02:28:52.601Z,74.07
2019-03-09T02:31:21.925Z,74.49
2019-03-09T02:33:51.090Z,74.37
2019-03-09T02:36:20.316Z,74.64
2019-03-09T02:39:07.275Z,74.25
2019-03-09T02:41:36.560Z,74.64
2019-03-09T02:44:05.815Z,75.17
2019-03-09T02:46:40.525Z,75.13
2019-03-09T02:49:10.554Z,74.76
2019-03-09T02:51:40.144Z,74.97
2019-03-09T02:54:09.214Z,74.75
2019-03-09T02:56:38.414Z,74.10
2019-03-09T02:59:07.741Z,73.85
2019-03-09T03:02:07.792Z,73.44
2019-03-09T03:04:36.853Z,74.06
2019-03-09T03:07:05.977Z,73.95
2019-03-09T03:09:35.056Z,73.44
2019-03-09T03:12:04.317Z,73.66
2019-03-09T03:14:33.397Z,73.45
2019-03-09T03:17:02.491Z,74.19
2019-03-09T03:19:31.977Z,73.61
2019-03-09T03:22:01.093Z,73.74
2019-03-09T03:24:30.156Z,74.43
2019-03-09T03:26:59.389Z,74.75
2019-03-09T03:29:28.686Z,74.90
2019-03-09T03:31:57.908Z,75.09
2019-03-09T03:34:27.002Z,74.30
2019-03-09T03:36:56.261Z,74.39
2019-03-09T03:39:25.406Z,74.28
2019-03-09T03:41:54.611Z,74.18
2019-03-09T03:44:23.892Z,73.69
2019-03-09T03:46:53.300Z,72.50
2019-03-09T03:49:22.449Z,72.33
2019-03-09T03:51:51.521Z,73.35
2019-03-09T03:54:20.708Z,73.57
2019-03-09T03:56:50.081Z,74.28
2019-03-09T03:59:19.311Z,75.48
2019-03-09T04:01:48.488Z,77.07
2019-03-09T04:04:17.600Z,78.21
2019-03-09T04:06:46.793Z,80.53
2019-03-09T04:09:16.254Z,80.45
2019-03-09T04:11:45.327Z,80.56
2019-03-09T04:14:14.590Z,81.57
2019-03-09T04:16:44.765Z,82.45
2019-03-09T04:19:14.051Z,81.62
2019-03-09T04:21:43.324Z,83.31
2019-03-09T04:24:12.460Z,84.35
2019-03-09T04:26:41.557Z,85.09
2019-03-09T04:29:11.100Z,83.93
2019-03-09T04:31:40.184Z,84.65
2019-03-09T04:34:09.319Z,86.37
2019-03-09T04:36:38.580Z,87.53
2019-03-09T04:39:07.948Z,87.30
2019-03-09T04:41:37.024Z,88.78
2019-03-09T04:44:06.359Z,88.64
2019-03-09T04:46:35.401Z,90.19
2019-03-09T04:49:04.685Z,91.72
2019-03-09T04:51:33.838Z,92.25
2019-03-09T04:54:03.075Z,93.67
2019-03-09T04:56:32.379Z,94.84
2019-03-09T04:59:01.595Z,95.89
2019-03-09T05:01:30.701Z,96.37
2019-03-09T05:04:44.183Z,95.71
2019-03-09T05:07:17.207Z,96.13
2019-03-09T05:09:59.304Z,97.00
2019-03-09T05:12:28.409Z,97.58
2019-03-09T05:14:57.502Z,98.05
2019-03-09T05:17:26.573Z,98.22
2019-03-09T05:19:55.873Z,98.74
2019-03-09T05:22:25.000Z,99.27
2019-03-09T05:24:54.249Z,98.58
2019-03-09T05:27:23.492Z,99.57
2019-03-09T05:29:52.864Z,99.97
2019-03-09T05:32:22.093Z,100.00
2019-03-09T05:34:51.368Z,100.00
2019-03-09T05:37:20.588Z,100.00
2019-03-09T05:39:51.518Z,100.00
2019-03-09T05:42:20.794Z,100.00
2019-03-09T05:44:49.875Z,100.00
2019-03-09T05:47:19.110Z,100.00
2019-03-09T05:49:48.285Z,99.52
2019-03-09T05:52:33.419Z,98.72
2019-03-09T05:55:09.634Z,99.00
2019-03-09T05:57:38.898Z,99.39
2019-03-09T06:00:08.643Z,99.73
2019-03-09T06:02:37.873Z,99.55
2019-03-09T06:05:31.953Z,100.00
2019-03-09T06:08:01.066Z,100.00
2019-03-09T06:10:30.170Z,100.00
2019-03-09T06:12:59.483Z,100.00
2019-03-09T06:15:28.791Z,100.00
2019-03-09T06:17:58.065Z,100.00
2019-03-09T06:20:27.370Z,100.00
2019-03-09T06:22:56.561Z,100.00
2019-03-09T06:25:26.074Z,100.00
2019-03-09T06:27:55.379Z,100.00
2019-03-09T06:30:24.717Z,100.00
2019-03-09T06:33:29.287Z,100.00
2019-03-09T06:36:48.057Z,100.00
2019-03-09T06:39:26.266Z,100.00
2019-03-09T06:42:31.063Z,100.00
2019-03-09T06:45:01.174Z,100.00
2019-03-09T06:47:30.679Z,100.00
2019-03-09T06:50:00.001Z,100.00
2019-03-09T06:52:29.165Z,100.00
2019-03-09T06:54:58.316Z,100.00
2019-03-09T06:57:27.710Z,100.00
2019-03-09T06:59:56.838Z,100.00
2019-03-09T07:02:25.972Z,100.00
2019-03-09T07:04:55.277Z,100.00
2019-03-09T07:07:24.601Z,100.00
2019-03-09T07:09:53.780Z,100.00
2019-03-09T07:12:23.133Z,100.00
2019-03-09T07:15:24.491Z,100.00
2019-03-09T07:17:56.472Z,100.00
2019-03-09T07:20:25.694Z,100.00
2019-03-09T07:22:54.979Z,100.00
2019-03-09T07:25:24.397Z,100.00
2019-03-09T07:28:01.503Z,100.00
2019-03-09T07:30:30.672Z,100.00
2019-03-09T07:32:59.951Z,99.80
2019-03-09T07:35:29.249Z,98.46
2019-03-09T07:37:58.335Z,97.68
2019-03-09T07:40:27.757Z,96.11
2019-03-09T07:42:56.839Z,95.35
2019-03-09T07:45:25.909Z,93.28
2019-03-09T07:47:55.143Z,93.84
2019-03-09T07:50:24.212Z,92.02
2019-03-09T07:52:53.515Z,89.55
2019-03-09T07:55:22.559Z,89.79
2019-03-09T07:57:51.776Z,88.25
2019-03-09T08:00:21.430Z,87.93
2019-03-09T08:02:50.702Z,85.92
2019-03-09T08:05:19.825Z,85.64
2019-03-09T08:07:49.140Z,84.53
2019-03-09T08:10:19.140Z,83.57
2019-03-09T08:12:48.262Z,82.29
2019-03-09T08:15:18.261Z,81.82
2019-03-09T08:17:47.589Z,81.93
2019-03-09T08:20:16.987Z,81.47
2019-03-09T08:22:46.140Z,79.77
2019-03-09T08:25:16.082Z,79.90
2019-03-09T08:27:45.530Z,78.53
2019-03-09T08:30:16.759Z,77.97
2019-03-09T08:32:45.917Z,77.70
2019-03-09T08:35:16.787Z,78.17
2019-03-09T08:37:46.273Z,76.52
2019-03-09T08:40:15.992Z,73.92
2019-03-09T08:42:45.101Z,75.08
2019-03-09T08:45:15.917Z,74.52
2019-03-09T08:47:52.074Z,73.90
2019-03-09T08:50:17.669Z,75.19
2019-03-09T08:52:47.196Z,75.85
2019-03-09T08:55:18.068Z,75.51
2019-03-09T08:57:47.453Z,75.25
2019-03-09T09:00:22.005Z,76.55
2019-03-09T09:02:51.114Z,75.85
2019-03-09T09:05:20.257Z,77.29
2019-03-09T09:07:49.616Z,76.49
2019-03-09T09:10:18.851Z,76.95
2019-03-09T09:12:48.002Z,75.67
2019-03-09T09:15:17.239Z,77.13
2019-03-09T09:17:46.426Z,75.99
2019-03-09T09:20:17.216Z,75.40
2019-03-09T09:22:46.364Z,76.28
2019-03-09T09:25:15.605Z,75.87
2019-03-09T09:27:44.796Z,75.74
2019-03-09T09:30:19.399Z,75.68
2019-03-09T09:32:48.503Z,75.57
2019-03-09T09:35:18.109Z,75.66
2019-03-09T09:37:47.283Z,75.22
2019-03-09T09:40:18.283Z,75.79
2019-03-09T09:42:47.444Z,74.99
2019-03-09T09:45:16.650Z,74.29
2019-03-09T09:47:45.937Z,74.35
2019-03-09T09:50:15.481Z,74.50
2019-03-09T09:52:44.589Z,74.69
2019-03-09T09:55:14.623Z,74.72
2019-03-09T09:57:44.128Z,74.73
2019-03-09T10:00:18.180Z,74.20
2019-03-09T10:02:47.304Z,74.51
2019-03-09T10:05:16.386Z,74.25
2019-03-09T10:07:45.574Z,74.65
2019-03-09T10:10:16.787Z,75.09
2019-03-09T10:12:45.928Z,75.21
2019-03-09T10:15:17.428Z,73.86
2019-03-09T10:17:47.811Z,74.32
2019-03-09T10:20:16.973Z,74.66
2019-03-09T10:22:46.195Z,74.10
2019-03-09T10:25:15.293Z,73.11
2019-03-09T10:27:44.441Z,73.11
2019-03-09T10:30:17.432Z,73.56
2019-03-09T10:32:46.641Z,73.38
2019-03-09T10:35:15.793Z,72.76
2019-03-09T10:37:44.984Z,72.50
2019-03-09T10:40:14.678Z,72.76
2019-03-09T10:42:43.850Z,72.74
2019-03-09T10:45:13.083Z,73.57
2019-03-09T10:47:43.291Z,72.25
2019-03-09T10:50:13.202Z,72.12
2019-03-09T10:52:42.419Z,71.94
2019-03-09T10:55:13.902Z,73.09
2019-03-09T10:57:43.561Z,72.83
2019-03-09T11:00:18.920Z,73.30
2019-03-09T11:02:48.054Z,73.36
2019-03-09T11:05:17.151Z,73.58
2019-03-09T11:07:46.404Z,72.96
2019-03-09T11:10:15.534Z,73.06
2019-03-09T11:12:44.766Z,72.49
2019-03-09T11:15:14.275Z,72.00
2019-03-09T11:17:43.385Z,73.41
2019-03-09T11:20:13.616Z,72.55
2019-03-09T11:22:42.858Z,73.04
2019-03-09T11:25:12.174Z,73.80
2019-03-09T11:27:41.248Z,75.02
2019-03-09T11:30:16.192Z,75.81
2019-03-09T11:32:45.315Z,75.75
2019-03-09T11:35:14.878Z,75.17
2019-03-09T11:37:44.091Z,76.53
2019-03-09T11:40:13.243Z,77.91
2019-03-09T11:42:42.382Z,78.27
2019-03-09T11:45:12.165Z,78.57
2019-03-09T11:47:41.523Z,79.11
2019-03-09T11:50:11.136Z,80.44
2019-03-09T11:52:40.240Z,80.47
2019-03-09T11:55:09.824Z,82.26
2019-03-09T11:57:40.743Z,83.95
2019-03-09T12:00:11.891Z,85.54
2019-03-09T12:02:41.137Z,87.09
2019-03-09T12:05:10.922Z,85.99
2019-03-09T12:07:40.475Z,86.65
2019-03-09T12:10:10.213Z,87.20
2019-03-09T12:12:39.600Z,85.22
2019-03-09T12:15:09.943Z,86.29
2019-03-09T12:17:39.223Z,87.14
2019-03-09T12:20:08.603Z,87.73
2019-03-09T12:22:38.012Z,87.70
2019-03-09T12:25:08.059Z,87.84
2019-03-09T12:27:37.456Z,86.11
2019-03-09T12:30:07.811Z,86.72
2019-03-09T12:32:37.397Z,87.89
2019-03-09T12:35:06.800Z,88.62
2019-03-09T12:37:36.200Z,87.03
2019-03-09T12:40:05.630Z,86.76
2019-03-09T12:42:34.757Z,87.33
2019-03-09T12:45:06.483Z,84.61
2019-03-09T12:47:35.761Z,84.57
2019-03-09T12:50:05.783Z,85.01
2019-03-09T12:52:35.080Z,85.07
2019-03-09T12:55:04.598Z,84.81
2019-03-09T12:57:33.835Z,85.45
2019-03-09T13:00:02.935Z,85.13
2019-03-09T13:02:32.360Z,85.93
2019-03-09T13:05:02.221Z,85.80
2019-03-09T13:07:31.368Z,85.74
2019-03-09T13:10:00.854Z,85.09
2019-03-09T13:12:29.999Z,85.04
2019-03-09T13:14:59.105Z,86.10
2019-03-09T13:17:28.250Z,86.00
2019-03-09T13:19:57.417Z,85.90
2019-03-09T13:22:26.924Z,86.53
2019-03-09T13:24:56.013Z,86.34
2019-03-09T13:27:25.365Z,85.86
2019-03-09T13:29:54.601Z,85.42
2019-03-09T13:32:24.210Z,87.42
2019-03-09T13:34:54.430Z,88.30
2019-03-09T13:37:24.469Z,89.18
2019-03-09T13:39:53.686Z,88.77
2019-03-09T13:42:23.385Z,89.19
2019-03-09T13:44:52.797Z,90.27
2019-03-09T13:47:21.924Z,90.84
2019-03-09T13:49:51.171Z,91.81
2019-03-09T13:52:20.854Z,94.39
2019-03-09T13:54:49.982Z,96.16
2019-03-09T13:57:19.074Z,96.29
2019-03-09T13:59:48.534Z,97.05
2019-03-09T14:02:19.201Z,96.99
2019-03-09T14:04:48.667Z,97.23
2019-03-09T14:07:18.843Z,97.90
2019-03-09T14:09:47.947Z,98.06
2019-03-09T14:12:17.249Z,99.08
2019-03-09T14:14:46.481Z,99.04
2019-03-09T14:17:15.554Z,98.21
2019-03-09T14:19:44.757Z,97.41
2019-03-09T14:22:13.872Z,98.11
2019-03-09T14:24:43.127Z,98.77
2019-03-09T14:27:12.638Z,99.33
2019-03-09T14:29:41.925Z,99.08
2019-03-09T14:32:11.135Z,96.41
2019-03-09T14:34:40.279Z,97.96
2019-03-09T14:37:09.487Z,97.97
2019-03-09T14:39:38.660Z,97.47
2019-03-09T14:42:10.055Z,97.35
2019-03-09T14:44:39.376Z,95.63
2019-03-09T14:47:08.453Z,95.75
2019-03-09T14:49:37.677Z,96.97
2019-03-09T14:52:07.611Z,96.37
2019-03-09T14:54:36.703Z,95.07
2019-03-09T14:57:05.986Z,95.41
2019-03-09T14:59:37.255Z,95.08
2019-03-09T15:02:06.596Z,94.92
2019-03-09T15:04:35.942Z,93.27
2019-03-09T15:07:08.070Z,92.90
2019-03-09T15:09:37.731Z,92.22
2019-03-09T15:12:07.173Z,92.61
2019-03-09T15:14:36.359Z,91.85
2019-03-09T15:17:06.324Z,92.51
2019-03-09T15:19:36.885Z,92.07
2019-03-09T15:22:07.657Z,91.93
2019-03-09T15:24:37.313Z,92.20
2019-03-09T15:27:06.563Z,92.75
2019-03-09T15:29:36.022Z,92.65
2019-03-09T15:32:05.173Z,93.24
2019-03-09T15:34:34.530Z,93.85
2019-03-09T15:37:04.262Z,94.29
2019-03-09T15:39:34.323Z,94.70
2019-03-09T15:42:04.477Z,94.86
2019-03-09T15:44:54.955Z,94.78
2019-03-09T15:47:28.811Z,94.77
2019-03-09T15:50:00.857Z,94.25
2019-03-09T15:52:33.767Z,94.96
2019-03-09T15:55:23.690Z,94.92
2019-03-09T15:58:33.800Z,94.62
2019-03-09T16:01:29.039Z,93.69
2019-03-09T16:04:14.000Z,93.70
2019-03-09T16:18:15.521Z,90.85
2019-03-09T16:21:46.483Z,91.25
2019-03-09T16:24:55.713Z,91.36
2019-03-09T16:27:34.005Z,89.29
2019-03-09T16:31:00.739Z,89.38
2019-03-09T16:37:26.879Z,89.70
2019-03-09T16:40:40.168Z,88.43
2019-03-09T16:46:52.106Z,87.33
2019-03-09T16:49:21.633Z,86.84
2019-03-09T16:51:51.739Z,87.27
2019-03-09T16:54:20.840Z,86.09
2019-03-09T16:56:50.239Z,85.81
2019-03-09T16:59:19.511Z,85.36
2019-03-09T17:01:48.717Z,85.27
2019-03-09T17:04:27.178Z,84.63
2019-03-09T17:07:01.653Z,84.54
2019-03-09T17:09:45.424Z,83.42
2019-03-09T17:13:07.454Z,83.26
2019-03-09T17:15:53.094Z,82.25
2019-03-09T17:18:22.549Z,82.37
2019-03-09T17:20:51.645Z,81.95
2019-03-09T17:23:20.719Z,81.71
2019-03-09T17:25:50.021Z,82.12
2019-03-09T17:28:19.185Z,82.01
2019-03-09T17:30:48.735Z,81.02
2019-03-09T17:33:17.770Z,81.38
2019-03-09T17:35:46.934Z,80.49
2019-03-09T17:38:16.139Z,80.27
2019-03-09T17:40:45.367Z,80.44
2019-03-09T17:43:14.469Z,80.19
2019-03-09T17:45:43.826Z,80.01
2019-03-09T17:48:13.036Z,79.80
2019-03-09T17:50:42.368Z,79.61
2019-03-09T17:53:13.915Z,79.78
2019-03-09T17:55:42.638Z,79.20
2019-03-09T17:58:11.779Z,78.83
2019-03-09T18:00:43.886Z,78.82
2019-03-09T18:03:13.386Z,78.24
2019-03-09T18:05:42.546Z,77.99
2019-03-09T18:08:11.646Z,77.91
2019-03-09T18:10:46.798Z,78.14
2019-03-09T18:13:16.098Z,78.36
2019-03-09T18:15:45.468Z,77.41
2019-03-09T18:18:14.569Z,77.32
2019-03-09T18:20:43.639Z,77.67
2019-03-09T18:23:12.758Z,78.02
2019-03-09T18:25:42.072Z,78.11
2019-03-09T18:28:11.303Z,78.99
2019-03-09T18:30:40.578Z,78.49
2019-03-09T18:33:09.718Z,78.06
2019-03-09T18:35:38.777Z,77.31
2019-03-09T18:38:08.338Z,77.32
2019-03-09T18:40:37.435Z,77.42
2019-03-09T18:43:06.703Z,77.04
2019-03-09T18:45:35.959Z,76.60
2019-03-09T18:48:05.109Z,77.31
2019-03-09T18:50:34.343Z,76.98
2019-03-09T18:53:05.201Z,77.60
2019-03-09T18:55:34.668Z,76.93
2019-03-09T18:58:03.772Z,76.83
2019-03-09T19:00:33.392Z,77.32
2019-03-09T19:03:02.721Z,76.37
2019-03-09T19:05:31.811Z,76.83
2019-03-09T19:08:01.007Z,76.39
